sensor_id;sensor_type;location;lat;lon;timestamp;temperature;humidity
29341;DHT22;16337;59.536;13.468;2022-12-18T00:00:44;2.10;99.90
29341;DHT22;16337;59.536;13.468;2022-12-18T00:03:15;2.10;99.90
29341;DHT22;16337;59.536;13.468;2022-12-18T00:05:50;2.10;99.90
29341;DHT22;16337;59.536;13.468;2022-12-18T00:08:17;2.10;99.90
29341;DHT22;16337;59.536;13.468;2022-12-18T00:10:43;2.10;99.90
29341;DHT22;16337;59.536;13.468;2022-12-18T00:13:10;2.10;99.90
29341;DHT22;16337;59.536;13.468;2022-12-18T00:15:37;2.10;99.90
29341;DHT22;16337;59.536;13.468;2022-12-18T00:18:04;2.10;99.90
29341;DHT22;16337;59.536;13.468;2022-12-18T00:20:30;2.10;99.90
29341;DHT22;16337;59.536;13.468;2022-12-18T00:22:56;2.10;99.90
29341;DHT22;16337;59.536;13.468;2022-12-18T00:25:22;2.10;99.90
29341;DHT22;16337;59.536;13.468;2022-12-18T00:27:48;2.10;99.90
29341;DHT22;16337;59.536;13.468;2022-12-18T00:30:14;2.10;99.90
29341;DHT22;16337;59.536;13.468;2022-12-18T00:32:40;2.00;99.90
29341;DHT22;16337;59.536;13.468;2022-12-18T00:35:06;2.00;99.90
29341;DHT22;16337;59.536;13.468;2022-12-18T00:37:35;2.00;99.90
29341;DHT22;16337;59.536;13.468;2022-12-18T00:40:01;2.00;99.90
29341;DHT22;16337;59.536;13.468;2022-12-18T00:42:27;2.00;99.90
29341;DHT22;16337;59.536;13.468;2022-12-18T00:45:11;1.90;99.90
29341;DHT22;16337;59.536;13.468;2022-12-18T00:47:37;1.90;99.90
29341;DHT22;16337;59.536;13.468;2022-12-18T00:50:02;1.90;99.90
29341;DHT22;16337;59.536;13.468;2022-12-18T00:52:28;1.90;99.90
29341;DHT22;16337;59.536;13.468;2022-12-18T00:54:54;1.90;99.90
29341;DHT22;16337;59.536;13.468;2022-12-18T00:57:20;1.80;99.90
29341;DHT22;16337;59.536;13.468;2022-12-18T00:59:45;1.80;99.90
29341;DHT22;16337;59.536;13.468;2022-12-18T01:02:12;1.80;99.90
29341;DHT22;16337;59.536;13.468;2022-12-18T01:04:38;1.80;99.90
29341;DHT22;16337;59.536;13.468;2022-12-18T01:07:04;1.80;99.90
29341;DHT22;16337;59.536;13.468;2022-12-18T01:09:29;1.80;99.90
29341;DHT22;16337;59.536;13.468;2022-12-18T01:11:56;1.80;99.90
29341;DHT22;16337;59.536;13.468;2022-12-18T01:14:21;1.80;99.90
29341;DHT22;16337;59.536;13.468;2022-12-18T01:16:47;1.80;99.90
29341;DHT22;16337;59.536;13.468;2022-12-18T01:19:13;1.90;99.90
29341;DHT22;16337;59.536;13.468;2022-12-18T01:21:39;1.80;99.90
29341;DHT22;16337;59.536;13.468;2022-12-18T01:24:05;1.80;99.90
29341;DHT22;16337;59.536;13.468;2022-12-18T01:26:31;1.80;99.90
29341;DHT22;16337;59.536;13.468;2022-12-18T01:28:57;1.80;99.90
29341;DHT22;16337;59.536;13.468;2022-12-18T01:31:28;1.80;99.90
29341;DHT22;16337;59.536;13.468;2022-12-18T01:33:55;1.80;99.90
29341;DHT22;16337;59.536;13.468;2022-12-18T01:36:29;1.80;99.90
29341;DHT22;16337;59.536;13.468;2022-12-18T01:38:56;1.80;99.90
29341;DHT22;16337;59.536;13.468;2022-12-18T01:41:24;1.80;99.90
29341;DHT22;16337;59.536;13.468;2022-12-18T01:43:52;1.90;99.90
29341;DHT22;16337;59.536;13.468;2022-12-18T01:46:20;1.80;99.90
29341;DHT22;16337;59.536;13.468;2022-12-18T01:48:52;1.80;99.90
29341;DHT22;16337;59.536;13.468;2022-12-18T01:51:18;1.90;99.90
29341;DHT22;16337;59.536;13.468;2022-12-18T01:53:45;1.90;99.90
29341;DHT22;16337;59.536;13.468;2022-12-18T01:56:14;1.90;99.90
29341;DHT22;16337;59.536;13.468;2022-12-18T01:58:54;1.80;99.90
29341;DHT22;16337;59.536;13.468;2022-12-18T02:01:22;1.80;99.90
29341;DHT22;16337;59.536;13.468;2022-12-18T02:03:49;1.80;99.90
29341;DHT22;16337;59.536;13.468;2022-12-18T02:06:34;1.70;99.90
29341;DHT22;16337;59.536;13.468;2022-12-18T02:09:15;1.80;99.90
29341;DHT22;16337;59.536;13.468;2022-12-18T02:27:56;1.70;99.90
29341;DHT22;16337;59.536;13.468;2022-12-18T02:30:26;1.70;99.90
29341;DHT22;16337;59.536;13.468;2022-12-18T02:32:56;1.80;99.90
29341;DHT22;16337;59.536;13.468;2022-12-18T02:35:25;1.80;99.90
29341;DHT22;16337;59.536;13.468;2022-12-18T02:37:53;1.80;99.90
29341;DHT22;16337;59.536;13.468;2022-12-18T02:40:21;1.80;99.90
29341;DHT22;16337;59.536;13.468;2022-12-18T02:42:48;1.80;99.90
29341;DHT22;16337;59.536;13.468;2022-12-18T02:45:14;1.70;99.90
29341;DHT22;16337;59.536;13.468;2022-12-18T02:47:43;1.70;99.90
29341;DHT22;16337;59.536;13.468;2022-12-18T02:50:36;1.80;99.90
29341;DHT22;16337;59.536;13.468;2022-12-18T02:58:52;1.80;99.90
29341;DHT22;16337;59.536;13.468;2022-12-18T03:03:59;1.80;99.90
29341;DHT22;16337;59.536;13.468;2022-12-18T03:06:43;1.90;99.90
29341;DHT22;16337;59.536;13.468;2022-12-18T03:09:14;1.90;99.90
29341;DHT22;16337;59.536;13.468;2022-12-18T03:11:44;1.90;99.90
29341;DHT22;16337;59.536;13.468;2022-12-18T03:14:32;1.90;99.90
29341;DHT22;16337;59.536;13.468;2022-12-18T03:17:03;1.90;99.90
29341;DHT22;16337;59.536;13.468;2022-12-18T03:19:32;1.90;99.90
29341;DHT22;16337;59.536;13.468;2022-12-18T03:22:01;1.90;99.90
29341;DHT22;16337;59.536;13.468;2022-12-18T03:24:31;1.90;99.90
29341;DHT22;16337;59.536;13.468;2022-12-18T03:27:01;1.80;99.90
29341;DHT22;16337;59.536;13.468;2022-12-18T03:29:33;1.80;99.90
29341;DHT22;16337;59.536;13.468;2022-12-18T03:32:29;1.90;99.90
29341;DHT22;16337;59.536;13.468;2022-12-18T03:34:59;1.90;99.90
29341;DHT22;16337;59.536;13.468;2022-12-18T03:37:27;1.90;99.90
29341;DHT22;16337;59.536;13.468;2022-12-18T03:39:52;1.90;99.90
29341;DHT22;16337;59.536;13.468;2022-12-18T03:42:22;1.90;99.90
29341;DHT22;16337;59.536;13.468;2022-12-18T03:53:00;1.90;99.90
29341;DHT22;16337;59.536;13.468;2022-12-18T03:55:31;1.80;99.90
29341;DHT22;16337;59.536;13.468;2022-12-18T03:58:00;1.80;99.90
29341;DHT22;16337;59.536;13.468;2022-12-18T04:00:28;1.90;99.90
29341;DHT22;16337;59.536;13.468;2022-12-18T04:02:56;1.90;99.90
29341;DHT22;16337;59.536;13.468;2022-12-18T04:05:24;1.90;99.90
29341;DHT22;16337;59.536;13.468;2022-12-18T04:07:51;1.90;99.90
29341;DHT22;16337;59.536;13.468;2022-12-18T04:10:18;2.00;99.90
29341;DHT22;16337;59.536;13.468;2022-12-18T04:12:44;1.90;99.90
29341;DHT22;16337;59.536;13.468;2022-12-18T04:15:10;1.90;99.90
29341;DHT22;16337;59.536;13.468;2022-12-18T04:17:37;1.90;99.90
29341;DHT22;16337;59.536;13.468;2022-12-18T04:20:04;1.90;99.90
29341;DHT22;16337;59.536;13.468;2022-12-18T04:22:29;1.90;99.90
29341;DHT22;16337;59.536;13.468;2022-12-18T04:24:55;1.90;99.90
29341;DHT22;16337;59.536;13.468;2022-12-18T04:27:21;1.90;99.90
29341;DHT22;16337;59.536;13.468;2022-12-18T04:29:47;1.90;99.90
29341;DHT22;16337;59.536;13.468;2022-12-18T04:32:13;1.90;99.90
29341;DHT22;16337;59.536;13.468;2022-12-18T04:34:38;1.90;99.90
29341;DHT22;16337;59.536;13.468;2022-12-18T04:37:04;1.90;99.90
29341;DHT22;16337;59.536;13.468;2022-12-18T04:39:30;1.90;99.90
29341;DHT22;16337;59.536;13.468;2022-12-18T04:41:56;1.90;99.90
29341;DHT22;16337;59.536;13.468;2022-12-18T04:44:21;1.80;99.90
29341;DHT22;16337;59.536;13.468;2022-12-18T04:46:47;1.80;99.90
29341;DHT22;16337;59.536;13.468;2022-12-18T04:49:13;1.80;99.90
29341;DHT22;16337;59.536;13.468;2022-12-18T04:51:38;1.80;99.90
29341;DHT22;16337;59.536;13.468;2022-12-18T04:54:04;1.90;99.90
29341;DHT22;16337;59.536;13.468;2022-12-18T04:56:31;1.90;99.90
29341;DHT22;16337;59.536;13.468;2022-12-18T04:58:57;1.90;99.90
29341;DHT22;16337;59.536;13.468;2022-12-18T05:01:23;1.90;99.90
29341;DHT22;16337;59.536;13.468;2022-12-18T05:03:48;1.90;99.90
29341;DHT22;16337;59.536;13.468;2022-12-18T05:06:14;1.90;99.90
29341;DHT22;16337;59.536;13.468;2022-12-18T05:08:40;1.90;99.90
29341;DHT22;16337;59.536;13.468;2022-12-18T05:11:09;1.90;99.90
29341;DHT22;16337;59.536;13.468;2022-12-18T05:13:35;1.90;99.90
29341;DHT22;16337;59.536;13.468;2022-12-18T05:16:02;1.90;99.90
29341;DHT22;16337;59.536;13.468;2022-12-18T05:18:28;1.90;99.90
29341;DHT22;16337;59.536;13.468;2022-12-18T05:20:54;2.00;99.90
29341;DHT22;16337;59.536;13.468;2022-12-18T05:23:22;2.00;99.90
29341;DHT22;16337;59.536;13.468;2022-12-18T05:26:00;2.00;99.90
29341;DHT22;16337;59.536;13.468;2022-12-18T05:28:28;2.00;99.90
29341;DHT22;16337;59.536;13.468;2022-12-18T05:30:58;2.00;99.90
29341;DHT22;16337;59.536;13.468;2022-12-18T05:33:26;2.00;99.90
29341;DHT22;16337;59.536;13.468;2022-12-18T05:35:53;2.00;99.90
29341;DHT22;16337;59.536;13.468;2022-12-18T05:38:20;2.00;99.90
29341;DHT22;16337;59.536;13.468;2022-12-18T05:40:48;2.00;99.90
29341;DHT22;16337;59.536;13.468;2022-12-18T05:43:14;2.00;99.90
29341;DHT22;16337;59.536;13.468;2022-12-18T05:45:40;2.00;99.90
29341;DHT22;16337;59.536;13.468;2022-12-18T05:48:07;2.10;99.90
29341;DHT22;16337;59.536;13.468;2022-12-18T05:50:37;2.00;99.90
29341;DHT22;16337;59.536;13.468;2022-12-18T05:53:03;2.00;99.90
29341;DHT22;16337;59.536;13.468;2022-12-18T05:55:33;2.00;99.90
29341;DHT22;16337;59.536;13.468;2022-12-18T05:57:59;2.00;99.90
29341;DHT22;16337;59.536;13.468;2022-12-18T06:00:25;2.00;99.90
29341;DHT22;16337;59.536;13.468;2022-12-18T06:02:51;2.00;99.90
29341;DHT22;16337;59.536;13.468;2022-12-18T06:05:17;2.00;99.90
29341;DHT22;16337;59.536;13.468;2022-12-18T06:07:42;2.00;99.90
29341;DHT22;16337;59.536;13.468;2022-12-18T06:10:08;2.00;99.90
29341;DHT22;16337;59.536;13.468;2022-12-18T06:12:34;2.00;99.90
29341;DHT22;16337;59.536;13.468;2022-12-18T06:15:00;2.00;99.90
29341;DHT22;16337;59.536;13.468;2022-12-18T06:17:30;2.10;99.90
29341;DHT22;16337;59.536;13.468;2022-12-18T06:19:57;2.10;99.90
29341;DHT22;16337;59.536;13.468;2022-12-18T06:22:23;2.10;99.90
29341;DHT22;16337;59.536;13.468;2022-12-18T06:24:49;2.10;99.90
29341;DHT22;16337;59.536;13.468;2022-12-18T06:27:15;2.20;99.90
29341;DHT22;16337;59.536;13.468;2022-12-18T06:29:41;2.20;99.90
29341;DHT22;16337;59.536;13.468;2022-12-18T06:32:06;2.10;99.90
29341;DHT22;16337;59.536;13.468;2022-12-18T06:34:33;2.10;99.90
29341;DHT22;16337;59.536;13.468;2022-12-18T06:36:59;2.10;99.90
29341;DHT22;16337;59.536;13.468;2022-12-18T06:39:26;2.10;99.90
29341;DHT22;16337;59.536;13.468;2022-12-18T06:41:52;2.10;99.90
29341;DHT22;16337;59.536;13.468;2022-12-18T06:44:18;2.10;99.90
29341;DHT22;16337;59.536;13.468;2022-12-18T06:46:44;2.10;99.90
29341;DHT22;16337;59.536;13.468;2022-12-18T06:49:09;2.10;99.90
29341;DHT22;16337;59.536;13.468;2022-12-18T06:51:35;2.10;99.90
29341;DHT22;16337;59.536;13.468;2022-12-18T06:54:01;2.10;99.90
29341;DHT22;16337;59.536;13.468;2022-12-18T06:56:27;2.10;99.90
29341;DHT22;16337;59.536;13.468;2022-12-18T06:58:53;2.10;99.90
29341;DHT22;16337;59.536;13.468;2022-12-18T07:01:20;2.10;99.90
29341;DHT22;16337;59.536;13.468;2022-12-18T07:03:46;2.10;99.90
29341;DHT22;16337;59.536;13.468;2022-12-18T07:06:17;2.10;99.90
29341;DHT22;16337;59.536;13.468;2022-12-18T07:08:45;2.10;99.90
29341;DHT22;16337;59.536;13.468;2022-12-18T07:11:11;2.10;99.90
29341;DHT22;16337;59.536;13.468;2022-12-18T07:13:37;2.20;99.90
29341;DHT22;16337;59.536;13.468;2022-12-18T07:16:14;2.20;99.90
29341;DHT22;16337;59.536;13.468;2022-12-18T07:18:40;2.10;99.90
29341;DHT22;16337;59.536;13.468;2022-12-18T07:21:08;2.20;99.90
29341;DHT22;16337;59.536;13.468;2022-12-18T07:23:35;2.20;99.90
29341;DHT22;16337;59.536;13.468;2022-12-18T07:26:06;2.20;99.90
29341;DHT22;16337;59.536;13.468;2022-12-18T07:28:33;2.20;99.90
29341;DHT22;16337;59.536;13.468;2022-12-18T07:31:06;2.30;99.90
29341;DHT22;16337;59.536;13.468;2022-12-18T07:33:33;2.30;99.90
29341;DHT22;16337;59.536;13.468;2022-12-18T07:36:00;2.30;99.90
29341;DHT22;16337;59.536;13.468;2022-12-18T07:38:25;2.30;99.90
29341;DHT22;16337;59.536;13.468;2022-12-18T07:40:51;2.30;99.90
29341;DHT22;16337;59.536;13.468;2022-12-18T07:43:17;2.30;99.90
29341;DHT22;16337;59.536;13.468;2022-12-18T07:45:43;2.30;99.90
29341;DHT22;16337;59.536;13.468;2022-12-18T07:48:09;2.30;99.90
29341;DHT22;16337;59.536;13.468;2022-12-18T07:50:35;2.30;99.90
29341;DHT22;16337;59.536;13.468;2022-12-18T07:53:01;2.30;99.90
29341;DHT22;16337;59.536;13.468;2022-12-18T07:55:31;2.30;99.90
29341;DHT22;16337;59.536;13.468;2022-12-18T07:58:00;2.30;99.90
29341;DHT22;16337;59.536;13.468;2022-12-18T08:00:26;2.30;99.90
29341;DHT22;16337;59.536;13.468;2022-12-18T08:02:51;2.30;99.90
29341;DHT22;16337;59.536;13.468;2022-12-18T08:05:17;2.30;99.90
29341;DHT22;16337;59.536;13.468;2022-12-18T08:07:43;2.30;99.90
29341;DHT22;16337;59.536;13.468;2022-12-18T08:10:09;2.30;99.90
29341;DHT22;16337;59.536;13.468;2022-12-18T08:12:35;2.30;99.90
29341;DHT22;16337;59.536;13.468;2022-12-18T08:15:00;2.20;99.90
29341;DHT22;16337;59.536;13.468;2022-12-18T08:17:26;2.20;99.90
29341;DHT22;16337;59.536;13.468;2022-12-18T08:19:52;2.20;99.90
29341;DHT22;16337;59.536;13.468;2022-12-18T08:22:17;2.20;99.90
29341;DHT22;16337;59.536;13.468;2022-12-18T08:24:43;2.20;99.90
29341;DHT22;16337;59.536;13.468;2022-12-18T08:27:09;2.20;99.90
29341;DHT22;16337;59.536;13.468;2022-12-18T08:29:34;2.20;99.90
29341;DHT22;16337;59.536;13.468;2022-12-18T08:32:00;2.20;99.90
29341;DHT22;16337;59.536;13.468;2022-12-18T08:34:26;2.20;99.90
29341;DHT22;16337;59.536;13.468;2022-12-18T08:36:52;2.30;99.90
29341;DHT22;16337;59.536;13.468;2022-12-18T08:39:17;2.30;99.90
29341;DHT22;16337;59.536;13.468;2022-12-18T08:41:43;2.30;99.90
29341;DHT22;16337;59.536;13.468;2022-12-18T08:44:29;2.40;99.90
29341;DHT22;16337;59.536;13.468;2022-12-18T08:47:05;2.30;99.90
29341;DHT22;16337;59.536;13.468;2022-12-18T08:49:31;2.40;99.90
29341;DHT22;16337;59.536;13.468;2022-12-18T08:51:56;2.40;99.90
29341;DHT22;16337;59.536;13.468;2022-12-18T08:54:23;2.40;99.90
29341;DHT22;16337;59.536;13.468;2022-12-18T08:56:49;2.40;99.90
29341;DHT22;16337;59.536;13.468;2022-12-18T08:59:16;2.50;99.90
29341;DHT22;16337;59.536;13.468;2022-12-18T09:01:42;2.60;99.90
29341;DHT22;16337;59.536;13.468;2022-12-18T09:04:09;2.60;99.90
29341;DHT22;16337;59.536;13.468;2022-12-18T09:06:35;2.60;99.90
29341;DHT22;16337;59.536;13.468;2022-12-18T09:09:01;2.60;99.90
29341;DHT22;16337;59.536;13.468;2022-12-18T09:11:27;2.60;99.90
29341;DHT22;16337;59.536;13.468;2022-12-18T09:13:54;2.60;99.90
29341;DHT22;16337;59.536;13.468;2022-12-18T09:16:21;2.70;99.90
29341;DHT22;16337;59.536;13.468;2022-12-18T09:18:47;2.60;99.90
29341;DHT22;16337;59.536;13.468;2022-12-18T09:21:16;2.70;99.90
29341;DHT22;16337;59.536;13.468;2022-12-18T09:23:42;2.70;99.90
29341;DHT22;16337;59.536;13.468;2022-12-18T09:26:08;2.70;99.90
29341;DHT22;16337;59.536;13.468;2022-12-18T09:28:34;2.80;99.90
29341;DHT22;16337;59.536;13.468;2022-12-18T09:31:04;2.80;99.90
29341;DHT22;16337;59.536;13.468;2022-12-18T09:33:31;2.90;99.90
29341;DHT22;16337;59.536;13.468;2022-12-18T09:35:57;2.90;99.90
29341;DHT22;16337;59.536;13.468;2022-12-18T09:38:22;2.90;99.90
29341;DHT22;16337;59.536;13.468;2022-12-18T09:40:53;2.90;99.90
29341;DHT22;16337;59.536;13.468;2022-12-18T09:46:01;2.90;99.90
29341;DHT22;16337;59.536;13.468;2022-12-18T09:48:32;2.80;99.90
29341;DHT22;16337;59.536;13.468;2022-12-18T09:51:03;2.80;99.90
29341;DHT22;16337;59.536;13.468;2022-12-18T09:53:35;2.80;99.90
29341;DHT22;16337;59.536;13.468;2022-12-18T09:56:04;2.90;99.90
29341;DHT22;16337;59.536;13.468;2022-12-18T09:58:41;2.90;99.90
29341;DHT22;16337;59.536;13.468;2022-12-18T10:01:21;2.90;99.90
29341;DHT22;16337;59.536;13.468;2022-12-18T10:03:48;3.10;99.90
29341;DHT22;16337;59.536;13.468;2022-12-18T10:06:42;3.10;99.90
29341;DHT22;16337;59.536;13.468;2022-12-18T10:14:59;3.20;99.90
29341;DHT22;16337;59.536;13.468;2022-12-18T10:17:46;3.10;99.90
29341;DHT22;16337;59.536;13.468;2022-12-18T10:22:58;3.10;99.90
29341;DHT22;16337;59.536;13.468;2022-12-18T10:25:53;3.10;99.90
29341;DHT22;16337;59.536;13.468;2022-12-18T10:28:21;3.00;99.90
29341;DHT22;16337;59.536;13.468;2022-12-18T10:30:48;3.00;99.90
29341;DHT22;16337;59.536;13.468;2022-12-18T10:33:20;3.10;99.90
29341;DHT22;16337;59.536;13.468;2022-12-18T10:35:49;3.10;99.90
29341;DHT22;16337;59.536;13.468;2022-12-18T10:41:03;3.10;99.90
29341;DHT22;16337;59.536;13.468;2022-12-18T10:43:31;3.20;99.90
29341;DHT22;16337;59.536;13.468;2022-12-18T10:51:06;3.10;99.90
29341;DHT22;16337;59.536;13.468;2022-12-18T10:53:34;3.20;99.90
29341;DHT22;16337;59.536;13.468;2022-12-18T10:56:00;3.20;99.90
29341;DHT22;16337;59.536;13.468;2022-12-18T10:58:33;3.30;99.90
29341;DHT22;16337;59.536;13.468;2022-12-18T11:01:04;3.30;99.90
29341;DHT22;16337;59.536;13.468;2022-12-18T11:03:33;3.40;99.90
29341;DHT22;16337;59.536;13.468;2022-12-18T11:06:16;3.40;99.90
29341;DHT22;16337;59.536;13.468;2022-12-18T11:08:44;3.40;99.90
29341;DHT22;16337;59.536;13.468;2022-12-18T11:11:23;3.40;99.90
29341;DHT22;16337;59.536;13.468;2022-12-18T11:14:13;3.40;99.90
29341;DHT22;16337;59.536;13.468;2022-12-18T11:16:46;3.50;99.90
29341;DHT22;16337;59.536;13.468;2022-12-18T11:19:31;3.50;99.90
29341;DHT22;16337;59.536;13.468;2022-12-18T11:21:59;3.60;99.90
29341;DHT22;16337;59.536;13.468;2022-12-18T11:24:32;3.60;99.90
29341;DHT22;16337;59.536;13.468;2022-12-18T11:27:02;3.70;99.90
29341;DHT22;16337;59.536;13.468;2022-12-18T11:29:36;3.60;99.90
29341;DHT22;16337;59.536;13.468;2022-12-18T11:34:48;3.50;99.90
29341;DHT22;16337;59.536;13.468;2022-12-18T11:37:17;3.60;99.90
29341;DHT22;16337;59.536;13.468;2022-12-18T11:39:59;3.60;99.90
29341;DHT22;16337;59.536;13.468;2022-12-18T11:42:35;3.50;99.90
29341;DHT22;16337;59.536;13.468;2022-12-18T11:48:01;3.40;99.90
29341;DHT22;16337;59.536;13.468;2022-12-18T11:52:59;3.40;99.90
29341;DHT22;16337;59.536;13.468;2022-12-18T11:55:41;3.30;99.90
29341;DHT22;16337;59.536;13.468;2022-12-18T11:58:33;3.20;99.90
29341;DHT22;16337;59.536;13.468;2022-12-18T12:12:56;3.30;99.90
29341;DHT22;16337;59.536;13.468;2022-12-18T12:15:59;3.30;99.90
29341;DHT22;16337;59.536;13.468;2022-12-18T12:21:21;3.20;99.90
29341;DHT22;16337;59.536;13.468;2022-12-18T12:26:57;3.10;99.90
29341;DHT22;16337;59.536;13.468;2022-12-18T12:35:12;2.90;99.90
29341;DHT22;16337;59.536;13.468;2022-12-18T12:37:54;2.90;99.90
29341;DHT22;16337;59.536;13.468;2022-12-18T12:40:24;2.90;99.90
29341;DHT22;16337;59.536;13.468;2022-12-18T12:42:58;2.90;99.90
29341;DHT22;16337;59.536;13.468;2022-12-18T12:48:56;2.90;99.90
29341;DHT22;16337;59.536;13.468;2022-12-18T12:51:35;2.80;99.90
29341;DHT22;16337;59.536;13.468;2022-12-18T12:54:05;2.90;99.90
29341;DHT22;16337;59.536;13.468;2022-12-18T12:59:13;2.90;99.90
29341;DHT22;16337;59.536;13.468;2022-12-18T13:01:55;2.90;99.90
29341;DHT22;16337;59.536;13.468;2022-12-18T13:07:26;3.00;99.90
29341;DHT22;16337;59.536;13.468;2022-12-18T13:13:00;3.00;99.90
29341;DHT22;16337;59.536;13.468;2022-12-18T13:15:46;3.00;99.90
29341;DHT22;16337;59.536;13.468;2022-12-18T13:18:17;3.00;99.90
29341;DHT22;16337;59.536;13.468;2022-12-18T13:23:26;2.80;99.90
29341;DHT22;16337;59.536;13.468;2022-12-18T13:31:00;2.60;99.90
29341;DHT22;16337;59.536;13.468;2022-12-18T13:38:47;2.40;99.90
29341;DHT22;16337;59.536;13.468;2022-12-18T13:41:33;2.40;99.90
29341;DHT22;16337;59.536;13.468;2022-12-18T13:44:33;2.40;99.90
29341;DHT22;16337;59.536;13.468;2022-12-18T13:47:01;2.40;99.90
29341;DHT22;16337;59.536;13.468;2022-12-18T13:49:40;2.40;99.90
29341;DHT22;16337;59.536;13.468;2022-12-18T13:52:21;2.40;99.90
29341;DHT22;16337;59.536;13.468;2022-12-18T13:54:55;2.40;99.90
29341;DHT22;16337;59.536;13.468;2022-12-18T13:57:39;2.30;99.90
29341;DHT22;16337;59.536;13.468;2022-12-18T14:00:27;2.30;99.90
29341;DHT22;16337;59.536;13.468;2022-12-18T14:02:55;2.20;99.90
29341;DHT22;16337;59.536;13.468;2022-12-18T14:05:24;2.10;99.90
29341;DHT22;16337;59.536;13.468;2022-12-18T14:07:50;2.00;99.90
29341;DHT22;16337;59.536;13.468;2022-12-18T14:10:16;1.90;99.90
29341;DHT22;16337;59.536;13.468;2022-12-18T14:12:47;1.90;99.90
29341;DHT22;16337;59.536;13.468;2022-12-18T14:18:02;1.80;99.90
29341;DHT22;16337;59.536;13.468;2022-12-18T14:20:32;1.70;99.90
29341;DHT22;16337;59.536;13.468;2022-12-18T14:22:58;1.70;99.90
29341;DHT22;16337;59.536;13.468;2022-12-18T14:25:27;1.70;99.90
29341;DHT22;16337;59.536;13.468;2022-12-18T14:28:07;1.70;99.90
29341;DHT22;16337;59.536;13.468;2022-12-18T14:30:42;1.80;99.90
29341;DHT22;16337;59.536;13.468;2022-12-18T14:35:39;1.70;99.90
29341;DHT22;16337;59.536;13.468;2022-12-18T14:40:51;1.60;99.90
29341;DHT22;16337;59.536;13.468;2022-12-18T14:43:20;1.50;99.90
29341;DHT22;16337;59.536;13.468;2022-12-18T14:45:46;1.60;99.90
29341;DHT22;16337;59.536;13.468;2022-12-18T14:48:36;1.60;99.90
29341;DHT22;16337;59.536;13.468;2022-12-18T14:53:39;1.60;99.90
29341;DHT22;16337;59.536;13.468;2022-12-18T14:58:53;1.80;99.90
29341;DHT22;16337;59.536;13.468;2022-12-18T15:01:25;1.70;99.90
29341;DHT22;16337;59.536;13.468;2022-12-18T15:03:53;1.70;99.90
29341;DHT22;16337;59.536;13.468;2022-12-18T15:06:33;1.70;99.90
29341;DHT22;16337;59.536;13.468;2022-12-18T15:09:05;1.60;99.90
29341;DHT22;16337;59.536;13.468;2022-12-18T15:11:44;1.50;99.90
29341;DHT22;16337;59.536;13.468;2022-12-18T15:14:30;1.30;99.90
29341;DHT22;16337;59.536;13.468;2022-12-18T15:16:58;1.30;99.90
29341;DHT22;16337;59.536;13.468;2022-12-18T15:19:41;1.20;99.90
29341;DHT22;16337;59.536;13.468;2022-12-18T15:22:28;1.20;99.90
29341;DHT22;16337;59.536;13.468;2022-12-18T15:24:55;1.20;99.90
29341;DHT22;16337;59.536;13.468;2022-12-18T15:30:19;1.10;99.90
29341;DHT22;16337;59.536;13.468;2022-12-18T15:32:47;1.00;99.90
29341;DHT22;16337;59.536;13.468;2022-12-18T15:35:18;0.80;99.90
29341;DHT22;16337;59.536;13.468;2022-12-18T15:37:44;0.80;99.90
29341;DHT22;16337;59.536;13.468;2022-12-18T15:40:19;0.70;99.90
29341;DHT22;16337;59.536;13.468;2022-12-18T15:42:45;0.50;99.90
29341;DHT22;16337;59.536;13.468;2022-12-18T15:45:30;0.30;99.90
29341;DHT22;16337;59.536;13.468;2022-12-18T15:47:56;0.10;99.90
29341;DHT22;16337;59.536;13.468;2022-12-18T15:50:22;0.00;99.90
29341;DHT22;16337;59.536;13.468;2022-12-18T15:52:50;-0.10;99.90
29341;DHT22;16337;59.536;13.468;2022-12-18T15:55:25;-0.20;99.90
29341;DHT22;16337;59.536;13.468;2022-12-18T15:58:10;-0.40;99.90
29341;DHT22;16337;59.536;13.468;2022-12-18T16:00:38;-0.40;99.90
29341;DHT22;16337;59.536;13.468;2022-12-18T16:03:05;-0.50;99.90
29341;DHT22;16337;59.536;13.468;2022-12-18T16:05:32;-0.60;99.90
29341;DHT22;16337;59.536;13.468;2022-12-18T16:07:57;-0.70;99.90
29341;DHT22;16337;59.536;13.468;2022-12-18T16:10:25;-0.90;99.90
29341;DHT22;16337;59.536;13.468;2022-12-18T16:12:50;-1.00;99.90
29341;DHT22;16337;59.536;13.468;2022-12-18T16:15:16;-1.00;99.90
29341;DHT22;16337;59.536;13.468;2022-12-18T16:17:46;-1.10;99.90
29341;DHT22;16337;59.536;13.468;2022-12-18T16:20:14;-1.10;99.90
29341;DHT22;16337;59.536;13.468;2022-12-18T16:22:42;-1.20;99.90
29341;DHT22;16337;59.536;13.468;2022-12-18T16:25:18;-1.20;99.90
29341;DHT22;16337;59.536;13.468;2022-12-18T16:27:43;-1.20;99.90
29341;DHT22;16337;59.536;13.468;2022-12-18T16:30:18;-1.10;99.90
29341;DHT22;16337;59.536;13.468;2022-12-18T16:32:44;-1.10;99.90
29341;DHT22;16337;59.536;13.468;2022-12-18T16:35:14;-1.10;99.90
29341;DHT22;16337;59.536;13.468;2022-12-18T16:37:41;-1.10;99.90
29341;DHT22;16337;59.536;13.468;2022-12-18T16:40:12;-1.20;99.90
29341;DHT22;16337;59.536;13.468;2022-12-18T16:42:40;-1.20;99.90
29341;DHT22;16337;59.536;13.468;2022-12-18T16:45:07;-1.20;99.90
29341;DHT22;16337;59.536;13.468;2022-12-18T16:47:34;-1.20;99.90
29341;DHT22;16337;59.536;13.468;2022-12-18T16:49:59;-1.20;99.90
29341;DHT22;16337;59.536;13.468;2022-12-18T16:52:25;-1.20;99.90
29341;DHT22;16337;59.536;13.468;2022-12-18T16:54:51;-1.20;99.90
29341;DHT22;16337;59.536;13.468;2022-12-18T16:57:19;-1.20;99.90
29341;DHT22;16337;59.536;13.468;2022-12-18T16:59:45;-1.10;99.90
29341;DHT22;16337;59.536;13.468;2022-12-18T17:02:17;-1.00;99.90
29341;DHT22;16337;59.536;13.468;2022-12-18T17:04:43;-1.10;99.90
29341;DHT22;16337;59.536;13.468;2022-12-18T17:07:10;-1.20;99.90
29341;DHT22;16337;59.536;13.468;2022-12-18T17:09:36;-1.20;99.90
29341;DHT22;16337;59.536;13.468;2022-12-18T17:12:03;-1.30;99.90
29341;DHT22;16337;59.536;13.468;2022-12-18T17:14:29;-1.40;99.90
29341;DHT22;16337;59.536;13.468;2022-12-18T17:16:55;-1.40;99.90
29341;DHT22;16337;59.536;13.468;2022-12-18T17:19:23;-1.50;99.90
29341;DHT22;16337;59.536;13.468;2022-12-18T17:21:49;-1.50;99.90
29341;DHT22;16337;59.536;13.468;2022-12-18T17:24:15;-1.60;99.90
29341;DHT22;16337;59.536;13.468;2022-12-18T17:26:42;-1.50;99.90
29341;DHT22;16337;59.536;13.468;2022-12-18T17:29:08;-1.50;99.90
29341;DHT22;16337;59.536;13.468;2022-12-18T17:31:34;-1.50;99.90
29341;DHT22;16337;59.536;13.468;2022-12-18T17:34:01;-1.40;99.90
29341;DHT22;16337;59.536;13.468;2022-12-18T17:36:28;-1.30;99.90
29341;DHT22;16337;59.536;13.468;2022-12-18T17:38:58;-1.30;99.90
29341;DHT22;16337;59.536;13.468;2022-12-18T17:41:26;-1.40;99.90
29341;DHT22;16337;59.536;13.468;2022-12-18T17:44:00;-1.50;99.90
29341;DHT22;16337;59.536;13.468;2022-12-18T17:46:28;-1.60;99.90
29341;DHT22;16337;59.536;13.468;2022-12-18T17:48:55;-1.70;99.90